sensor_id;sensor_type;location;lat;lon;timestamp;P1;durP1;ratioP1;P2;durP2;ratioP2
3791;SDS011;1911;53.768;11.474;2022-08-02T00:01:28;5.70;;;2.40;;
3791;SDS011;1911;53.768;11.474;2022-08-02T00:03:54;8.33;;;2.50;;
3791;SDS011;1911;53.768;11.474;2022-08-02T00:06:20;7.43;;;3.47;;
3791;SDS011;1911;53.768;11.474;2022-08-02T00:08:46;13.67;;;3.13;;
3791;SDS011;1911;53.768;11.474;2022-08-02T00:11:12;9.23;;;2.47;;
3791;SDS011;1911;53.768;11.474;2022-08-02T00:13:37;8.70;;;2.87;;
3791;SDS011;1911;53.768;11.474;2022-08-02T00:16:03;5.60;;;2.50;;
3791;SDS011;1911;53.768;11.474;2022-08-02T00:18:29;6.00;;;2.20;;
3791;SDS011;1911;53.768;11.474;2022-08-02T00:20:55;8.30;;;2.50;;
3791;SDS011;1911;53.768;11.474;2022-08-02T00:23:20;10.23;;;3.60;;
3791;SDS011;1911;53.768;11.474;2022-08-02T00:25:46;9.63;;;2.63;;
3791;SDS011;1911;53.768;11.474;2022-08-02T00:28:12;8.10;;;2.97;;
3791;SDS011;1911;53.768;11.474;2022-08-02T00:30:38;5.23;;;2.80;;
3791;SDS011;1911;53.768;11.474;2022-08-02T00:33:04;7.73;;;3.37;;
3791;SDS011;1911;53.768;11.474;2022-08-02T00:35:30;13.10;;;3.30;;
3791;SDS011;1911;53.768;11.474;2022-08-02T00:37:56;6.20;;;2.67;;
3791;SDS011;1911;53.768;11.474;2022-08-02T00:40:22;10.33;;;3.60;;
3791;SDS011;1911;53.768;11.474;2022-08-02T00:43:07;5.30;;;2.13;;
3791;SDS011;1911;53.768;11.474;2022-08-02T00:45:35;7.20;;;3.10;;
3791;SDS011;1911;53.768;11.474;2022-08-02T00:48:02;6.70;;;2.73;;
3791;SDS011;1911;53.768;11.474;2022-08-02T00:50:28;8.07;;;3.93;;
3791;SDS011;1911;53.768;11.474;2022-08-02T00:52:55;8.33;;;3.53;;
3791;SDS011;1911;53.768;11.474;2022-08-02T00:55:21;9.30;;;3.10;;
3791;SDS011;1911;53.768;11.474;2022-08-02T00:57:47;9.40;;;3.57;;
3791;SDS011;1911;53.768;11.474;2022-08-02T01:00:14;9.20;;;2.90;;
3791;SDS011;1911;53.768;11.474;2022-08-02T01:02:57;12.23;;;3.07;;
3791;SDS011;1911;53.768;11.474;2022-08-02T01:05:31;12.33;;;2.97;;
3791;SDS011;1911;53.768;11.474;2022-08-02T01:11:08;9.27;;;4.17;;
3791;SDS011;1911;53.768;11.474;2022-08-02T01:13:33;7.60;;;2.60;;
3791;SDS011;1911;53.768;11.474;2022-08-02T01:16:01;9.70;;;2.70;;
3791;SDS011;1911;53.768;11.474;2022-08-02T01:18:37;10.90;;;3.40;;
3791;SDS011;1911;53.768;11.474;2022-08-02T01:29:57;10.50;;;3.63;;
3791;SDS011;1911;53.768;11.474;2022-08-02T01:32:27;12.50;;;3.70;;
3791;SDS011;1911;53.768;11.474;2022-08-02T01:34:58;10.63;;;3.30;;
3791;SDS011;1911;53.768;11.474;2022-08-02T01:37:36;6.80;;;2.53;;
3791;SDS011;1911;53.768;11.474;2022-08-02T01:40:09;10.20;;;3.33;;
3791;SDS011;1911;53.768;11.474;2022-08-02T01:42:40;6.00;;;2.47;;
3791;SDS011;1911;53.768;11.474;2022-08-02T01:45:11;6.77;;;2.73;;
3791;SDS011;1911;53.768;11.474;2022-08-02T01:47:39;7.20;;;3.10;;
3791;SDS011;1911;53.768;11.474;2022-08-02T01:50:07;6.50;;;3.30;;
3791;SDS011;1911;53.768;11.474;2022-08-02T01:52:48;10.73;;;3.90;;
3791;SDS011;1911;53.768;11.474;2022-08-02T01:58:04;9.57;;;3.70;;
3791;SDS011;1911;53.768;11.474;2022-08-02T02:00:34;4.77;;;2.50;;
3791;SDS011;1911;53.768;11.474;2022-08-02T02:03:04;8.90;;;3.00;;
3791;SDS011;1911;53.768;11.474;2022-08-02T02:05:33;7.87;;;2.83;;
3791;SDS011;1911;53.768;11.474;2022-08-02T02:08:00;7.30;;;2.93;;
3791;SDS011;1911;53.768;11.474;2022-08-02T02:10:29;11.83;;;3.33;;
3791;SDS011;1911;53.768;11.474;2022-08-02T02:13:02;11.63;;;3.17;;
3791;SDS011;1911;53.768;11.474;2022-08-02T02:15:31;8.00;;;2.73;;
3791;SDS011;1911;53.768;11.474;2022-08-02T02:18:00;8.67;;;3.10;;
3791;SDS011;1911;53.768;11.474;2022-08-02T02:20:26;14.30;;;3.00;;
3791;SDS011;1911;53.768;11.474;2022-08-02T02:22:53;5.47;;;3.20;;
3791;SDS011;1911;53.768;11.474;2022-08-02T02:25:19;7.43;;;2.77;;
3791;SDS011;1911;53.768;11.474;2022-08-02T02:30:30;12.63;;;3.43;;
3791;SDS011;1911;53.768;11.474;2022-08-02T02:32:58;7.43;;;3.23;;
3791;SDS011;1911;53.768;11.474;2022-08-02T02:35:31;6.40;;;3.27;;
3791;SDS011;1911;53.768;11.474;2022-08-02T02:38:01;7.03;;;2.80;;
3791;SDS011;1911;53.768;11.474;2022-08-02T02:40:29;7.97;;;2.80;;
3791;SDS011;1911;53.768;11.474;2022-08-02T02:42:57;5.37;;;2.90;;
3791;SDS011;1911;53.768;11.474;2022-08-02T02:45:24;10.43;;;3.27;;
3791;SDS011;1911;53.768;11.474;2022-08-02T02:47:52;9.63;;;3.27;;
3791;SDS011;1911;53.768;11.474;2022-08-02T02:50:19;9.80;;;3.47;;
3791;SDS011;1911;53.768;11.474;2022-08-02T02:52:47;9.30;;;2.57;;
3791;SDS011;1911;53.768;11.474;2022-08-02T02:55:13;8.40;;;3.37;;
3791;SDS011;1911;53.768;11.474;2022-08-02T02:57:42;12.60;;;3.23;;
3791;SDS011;1911;53.768;11.474;2022-08-02T03:00:09;8.00;;;3.20;;
3791;SDS011;1911;53.768;11.474;2022-08-02T03:02:36;12.30;;;3.40;;
3791;SDS011;1911;53.768;11.474;2022-08-02T03:05:05;5.47;;;3.53;;
3791;SDS011;1911;53.768;11.474;2022-08-02T03:07:32;14.70;;;3.23;;
3791;SDS011;1911;53.768;11.474;2022-08-02T03:09:58;7.80;;;3.43;;
3791;SDS011;1911;53.768;11.474;2022-08-02T03:12:24;6.83;;;3.37;;
3791;SDS011;1911;53.768;11.474;2022-08-02T03:14:52;9.20;;;3.47;;
3791;SDS011;1911;53.768;11.474;2022-08-02T03:17:18;8.83;;;3.20;;
3791;SDS011;1911;53.768;11.474;2022-08-02T03:19:44;10.77;;;3.30;;
3791;SDS011;1911;53.768;11.474;2022-08-02T03:22:10;7.60;;;3.60;;
3791;SDS011;1911;53.768;11.474;2022-08-02T03:24:36;8.73;;;3.50;;
3791;SDS011;1911;53.768;11.474;2022-08-02T03:27:02;15.00;;;3.63;;
3791;SDS011;1911;53.768;11.474;2022-08-02T03:29:28;10.10;;;3.40;;
3791;SDS011;1911;53.768;11.474;2022-08-02T03:31:54;7.13;;;3.23;;
3791;SDS011;1911;53.768;11.474;2022-08-02T03:34:21;8.87;;;3.00;;
3791;SDS011;1911;53.768;11.474;2022-08-02T03:36:47;8.97;;;3.10;;
3791;SDS011;1911;53.768;11.474;2022-08-02T03:39:16;5.37;;;3.07;;
3791;SDS011;1911;53.768;11.474;2022-08-02T03:41:43;6.23;;;3.10;;
3791;SDS011;1911;53.768;11.474;2022-08-02T03:44:11;9.50;;;2.90;;
3791;SDS011;1911;53.768;11.474;2022-08-02T03:46:38;9.50;;;3.80;;
3791;SDS011;1911;53.768;11.474;2022-08-02T03:49:06;7.03;;;2.77;;
3791;SDS011;1911;53.768;11.474;2022-08-02T03:51:33;7.00;;;3.33;;
3791;SDS011;1911;53.768;11.474;2022-08-02T03:54:00;9.50;;;3.80;;
3791;SDS011;1911;53.768;11.474;2022-08-02T03:56:27;7.00;;;3.00;;
3791;SDS011;1911;53.768;11.474;2022-08-02T03:59:09;12.70;;;3.20;;
3791;SDS011;1911;53.768;11.474;2022-08-02T04:01:37;8.00;;;2.90;;
3791;SDS011;1911;53.768;11.474;2022-08-02T04:04:03;11.63;;;2.80;;
3791;SDS011;1911;53.768;11.474;2022-08-02T04:06:29;6.50;;;2.83;;
3791;SDS011;1911;53.768;11.474;2022-08-02T04:08:55;9.13;;;3.00;;
3791;SDS011;1911;53.768;11.474;2022-08-02T04:11:21;9.20;;;3.00;;
3791;SDS011;1911;53.768;11.474;2022-08-02T04:13:56;7.70;;;3.70;;
3791;SDS011;1911;53.768;11.474;2022-08-02T04:16:43;6.80;;;2.50;;
3791;SDS011;1911;53.768;11.474;2022-08-02T04:19:20;7.90;;;3.13;;
3791;SDS011;1911;53.768;11.474;2022-08-02T04:21:55;6.03;;;3.13;;
3791;SDS011;1911;53.768;11.474;2022-08-02T04:24:25;8.10;;;2.70;;
3791;SDS011;1911;53.768;11.474;2022-08-02T04:26:56;9.33;;;3.20;;
3791;SDS011;1911;53.768;11.474;2022-08-02T04:29:24;8.50;;;2.90;;
3791;SDS011;1911;53.768;11.474;2022-08-02T04:31:50;11.17;;;3.40;;
3791;SDS011;1911;53.768;11.474;2022-08-02T04:34:18;6.70;;;3.50;;
3791;SDS011;1911;53.768;11.474;2022-08-02T04:36:44;6.40;;;3.67;;
3791;SDS011;1911;53.768;11.474;2022-08-02T04:39:11;7.70;;;2.57;;
3791;SDS011;1911;53.768;11.474;2022-08-02T04:44:02;5.97;;;2.90;;
3791;SDS011;1911;53.768;11.474;2022-08-02T04:46:28;8.47;;;3.20;;
3791;SDS011;1911;53.768;11.474;2022-08-02T04:48:54;10.00;;;2.87;;
3791;SDS011;1911;53.768;11.474;2022-08-02T04:51:20;8.63;;;2.40;;
3791;SDS011;1911;53.768;11.474;2022-08-02T04:53:45;5.37;;;3.17;;
3791;SDS011;1911;53.768;11.474;2022-08-02T04:56:11;7.83;;;3.07;;
3791;SDS011;1911;53.768;11.474;2022-08-02T04:58:37;9.10;;;2.83;;
3791;SDS011;1911;53.768;11.474;2022-08-02T05:01:03;10.20;;;3.33;;
3791;SDS011;1911;53.768;11.474;2022-08-02T05:03:28;5.80;;;2.63;;
3791;SDS011;1911;53.768;11.474;2022-08-02T05:05:54;8.73;;;3.37;;
3791;SDS011;1911;53.768;11.474;2022-08-02T05:08:20;6.80;;;3.20;;
3791;SDS011;1911;53.768;11.474;2022-08-02T05:10:45;5.30;;;2.90;;
3791;SDS011;1911;53.768;11.474;2022-08-02T05:13:11;9.00;;;3.40;;
3791;SDS011;1911;53.768;11.474;2022-08-02T05:15:37;7.60;;;3.30;;
3791;SDS011;1911;53.768;11.474;2022-08-02T05:18:02;11.37;;;3.77;;
3791;SDS011;1911;53.768;11.474;2022-08-02T05:20:28;8.07;;;2.80;;
3791;SDS011;1911;53.768;11.474;2022-08-02T05:22:54;8.37;;;3.33;;
3791;SDS011;1911;53.768;11.474;2022-08-02T05:25:20;7.43;;;2.37;;
3791;SDS011;1911;53.768;11.474;2022-08-02T05:27:46;6.63;;;2.60;;
3791;SDS011;1911;53.768;11.474;2022-08-02T05:30:11;6.77;;;2.27;;
3791;SDS011;1911;53.768;11.474;2022-08-02T05:32:44;5.17;;;2.27;;
3791;SDS011;1911;53.768;11.474;2022-08-02T05:35:23;7.40;;;2.83;;
3791;SDS011;1911;53.768;11.474;2022-08-02T05:37:50;4.63;;;1.97;;
3791;SDS011;1911;53.768;11.474;2022-08-02T05:40:16;7.73;;;2.30;;
3791;SDS011;1911;53.768;11.474;2022-08-02T05:42:42;6.20;;;2.43;;
3791;SDS011;1911;53.768;11.474;2022-08-02T05:45:08;5.53;;;2.60;;
3791;SDS011;1911;53.768;11.474;2022-08-02T05:47:34;5.07;;;2.10;;
3791;SDS011;1911;53.768;11.474;2022-08-02T05:50:00;4.27;;;1.80;;
3791;SDS011;1911;53.768;11.474;2022-08-02T05:52:30;9.30;;;2.57;;
3791;SDS011;1911;53.768;11.474;2022-08-02T05:55:15;8.97;;;2.47;;
3791;SDS011;1911;53.768;11.474;2022-08-02T06:00:17;10.17;;;2.23;;
3791;SDS011;1911;53.768;11.474;2022-08-02T06:05:33;6.77;;;2.33;;
3791;SDS011;1911;53.768;11.474;2022-08-02T06:08:05;8.03;;;2.50;;
3791;SDS011;1911;53.768;11.474;2022-08-02T06:10:36;8.93;;;2.50;;
3791;SDS011;1911;53.768;11.474;2022-08-02T06:13:10;7.10;;;2.57;;
3791;SDS011;1911;53.768;11.474;2022-08-02T06:15:38;5.30;;;1.97;;
3791;SDS011;1911;53.768;11.474;2022-08-02T06:18:05;4.50;;;1.97;;
3791;SDS011;1911;53.768;11.474;2022-08-02T06:20:34;6.43;;;1.53;;
3791;SDS011;1911;53.768;11.474;2022-08-02T06:23:01;7.43;;;1.97;;
3791;SDS011;1911;53.768;11.474;2022-08-02T06:25:28;8.87;;;2.30;;
3791;SDS011;1911;53.768;11.474;2022-08-02T06:28:03;4.90;;;1.70;;
3791;SDS011;1911;53.768;11.474;2022-08-02T06:30:30;5.73;;;1.63;;
3791;SDS011;1911;53.768;11.474;2022-08-02T06:32:58;7.43;;;1.90;;
3791;SDS011;1911;53.768;11.474;2022-08-02T06:35:38;5.77;;;2.10;;
3791;SDS011;1911;53.768;11.474;2022-08-02T06:38:50;7.10;;;1.97;;
3791;SDS011;1911;53.768;11.474;2022-08-02T06:41:28;6.13;;;1.30;;
3791;SDS011;1911;53.768;11.474;2022-08-02T06:44:02;7.43;;;2.03;;
3791;SDS011;1911;53.768;11.474;2022-08-02T06:46:31;6.53;;;2.17;;
3791;SDS011;1911;53.768;11.474;2022-08-02T06:48:58;5.70;;;2.10;;
3791;SDS011;1911;53.768;11.474;2022-08-02T06:51:24;6.60;;;2.40;;
3791;SDS011;1911;53.768;11.474;2022-08-02T06:53:50;6.63;;;2.03;;
3791;SDS011;1911;53.768;11.474;2022-08-02T06:56:15;6.23;;;1.40;;
3791;SDS011;1911;53.768;11.474;2022-08-02T06:58:41;9.50;;;2.13;;
3791;SDS011;1911;53.768;11.474;2022-08-02T07:01:07;5.03;;;1.43;;
3791;SDS011;1911;53.768;11.474;2022-08-02T07:03:33;5.50;;;1.83;;
3791;SDS011;1911;53.768;11.474;2022-08-02T07:06:01;5.40;;;1.67;;
3791;SDS011;1911;53.768;11.474;2022-08-02T07:08:27;5.77;;;1.67;;
3791;SDS011;1911;53.768;11.474;2022-08-02T07:13:40;11.97;;;1.63;;
3791;SDS011;1911;53.768;11.474;2022-08-02T07:16:06;5.00;;;1.70;;
3791;SDS011;1911;53.768;11.474;2022-08-02T07:18:35;6.37;;;2.00;;
3791;SDS011;1911;53.768;11.474;2022-08-02T07:21:02;8.87;;;2.23;;
3791;SDS011;1911;53.768;11.474;2022-08-02T07:23:30;5.17;;;1.60;;
3791;SDS011;1911;53.768;11.474;2022-08-02T07:25:56;8.23;;;2.43;;
3791;SDS011;1911;53.768;11.474;2022-08-02T07:28:22;7.10;;;1.97;;
3791;SDS011;1911;53.768;11.474;2022-08-02T07:30:48;4.13;;;2.60;;
3791;SDS011;1911;53.768;11.474;2022-08-02T07:33:14;3.37;;;1.60;;
3791;SDS011;1911;53.768;11.474;2022-08-02T07:35:40;4.60;;;1.80;;
3791;SDS011;1911;53.768;11.474;2022-08-02T07:38:06;5.70;;;1.97;;
3791;SDS011;1911;53.768;11.474;2022-08-02T07:40:34;6.23;;;1.27;;
3791;SDS011;1911;53.768;11.474;2022-08-02T07:43:00;5.73;;;1.70;;
3791;SDS011;1911;53.768;11.474;2022-08-02T07:45:26;7.40;;;2.23;;
3791;SDS011;1911;53.768;11.474;2022-08-02T07:47:52;11.80;;;2.00;;
3791;SDS011;1911;53.768;11.474;2022-08-02T07:50:18;8.70;;;2.00;;
3791;SDS011;1911;53.768;11.474;2022-08-02T07:52:45;4.93;;;1.40;;
3791;SDS011;1911;53.768;11.474;2022-08-02T07:55:12;4.27;;;1.77;;
3791;SDS011;1911;53.768;11.474;2022-08-02T07:57:40;4.53;;;1.17;;
3791;SDS011;1911;53.768;11.474;2022-08-02T08:00:06;7.23;;;2.27;;
3791;SDS011;1911;53.768;11.474;2022-08-02T08:02:38;6.67;;;1.90;;
3791;SDS011;1911;53.768;11.474;2022-08-02T08:05:04;4.70;;;1.60;;
3791;SDS011;1911;53.768;11.474;2022-08-02T08:07:31;6.50;;;2.17;;
3791;SDS011;1911;53.768;11.474;2022-08-02T08:09:56;9.87;;;1.97;;
3791;SDS011;1911;53.768;11.474;2022-08-02T08:12:24;5.83;;;1.87;;
3791;SDS011;1911;53.768;11.474;2022-08-02T08:14:50;6.77;;;2.10;;
3791;SDS011;1911;53.768;11.474;2022-08-02T08:17:16;6.13;;;2.23;;
3791;SDS011;1911;53.768;11.474;2022-08-02T08:19:45;3.50;;;1.40;;
3791;SDS011;1911;53.768;11.474;2022-08-02T08:22:11;5.10;;;2.20;;
3791;SDS011;1911;53.768;11.474;2022-08-02T08:24:37;3.43;;;1.63;;
3791;SDS011;1911;53.768;11.474;2022-08-02T08:27:03;7.93;;;2.13;;
3791;SDS011;1911;53.768;11.474;2022-08-02T08:29:39;5.13;;;1.67;;
3791;SDS011;1911;53.768;11.474;2022-08-02T08:32:06;9.53;;;2.10;;
3791;SDS011;1911;53.768;11.474;2022-08-02T08:34:32;5.10;;;1.70;;
3791;SDS011;1911;53.768;11.474;2022-08-02T08:36:58;5.23;;;1.77;;
3791;SDS011;1911;53.768;11.474;2022-08-02T08:39:24;7.00;;;2.17;;
3791;SDS011;1911;53.768;11.474;2022-08-02T08:41:50;5.80;;;1.93;;
3791;SDS011;1911;53.768;11.474;2022-08-02T08:44:15;8.30;;;2.70;;
3791;SDS011;1911;53.768;11.474;2022-08-02T08:46:41;6.40;;;2.00;;
3791;SDS011;1911;53.768;11.474;2022-08-02T08:49:09;6.27;;;1.83;;
3791;SDS011;1911;53.768;11.474;2022-08-02T08:51:41;5.03;;;1.63;;
3791;SDS011;1911;53.768;11.474;2022-08-02T08:54:13;4.67;;;1.80;;
3791;SDS011;1911;53.768;11.474;2022-08-02T08:56:41;5.30;;;1.40;;
3791;SDS011;1911;53.768;11.474;2022-08-02T08:59:07;5.80;;;1.90;;
3791;SDS011;1911;53.768;11.474;2022-08-02T09:01:33;8.80;;;1.77;;
3791;SDS011;1911;53.768;11.474;2022-08-02T09:03:59;10.57;;;2.33;;
3791;SDS011;1911;53.768;11.474;2022-08-02T09:06:25;7.47;;;2.00;;
3791;SDS011;1911;53.768;11.474;2022-08-02T09:08:51;5.23;;;1.90;;
3791;SDS011;1911;53.768;11.474;2022-08-02T09:11:18;6.63;;;1.60;;
3791;SDS011;1911;53.768;11.474;2022-08-02T09:13:57;6.63;;;1.90;;
3791;SDS011;1911;53.768;11.474;2022-08-02T09:16:38;5.37;;;1.80;;
3791;SDS011;1911;53.768;11.474;2022-08-02T09:19:18;5.37;;;2.00;;
3791;SDS011;1911;53.768;11.474;2022-08-02T09:21:49;5.40;;;2.00;;
3791;SDS011;1911;53.768;11.474;2022-08-02T09:26:43;7.67;;;2.60;;
3791;SDS011;1911;53.768;11.474;2022-08-02T09:29:09;6.00;;;1.47;;
3791;SDS011;1911;53.768;11.474;2022-08-02T09:31:35;4.30;;;2.00;;
3791;SDS011;1911;53.768;11.474;2022-08-02T09:34:01;5.63;;;2.30;;
3791;SDS011;1911;53.768;11.474;2022-08-02T09:36:36;6.17;;;1.80;;
3791;SDS011;1911;53.768;11.474;2022-08-02T09:39:08;12.17;;;2.70;;
3791;SDS011;1911;53.768;11.474;2022-08-02T09:41:36;5.90;;;2.37;;
3791;SDS011;1911;53.768;11.474;2022-08-02T09:44:05;5.27;;;1.80;;
3791;SDS011;1911;53.768;11.474;2022-08-02T09:46:38;8.00;;;2.07;;
3791;SDS011;1911;53.768;11.474;2022-08-02T09:51:51;11.20;;;2.30;;
3791;SDS011;1911;53.768;11.474;2022-08-02T09:54:27;5.30;;;1.87;;
3791;SDS011;1911;53.768;11.474;2022-08-02T09:56:54;3.30;;;1.60;;
3791;SDS011;1911;53.768;11.474;2022-08-02T09:59:22;7.73;;;2.07;;
3791;SDS011;1911;53.768;11.474;2022-08-02T10:01:50;8.93;;;2.13;;
3791;SDS011;1911;53.768;11.474;2022-08-02T10:04:20;10.97;;;2.23;;
3791;SDS011;1911;53.768;11.474;2022-08-02T10:06:47;3.00;;;1.63;;
3791;SDS011;1911;53.768;11.474;2022-08-02T10:09:14;6.60;;;1.67;;
3791;SDS011;1911;53.768;11.474;2022-08-02T10:11:40;4.80;;;1.90;;
3791;SDS011;1911;53.768;11.474;2022-08-02T10:14:07;5.13;;;2.00;;
3791;SDS011;1911;53.768;11.474;2022-08-02T10:16:36;5.00;;;1.93;;
3791;SDS011;1911;53.768;11.474;2022-08-02T10:19:03;5.70;;;1.73;;
3791;SDS011;1911;53.768;11.474;2022-08-02T10:24:09;4.10;;;1.60;;
3791;SDS011;1911;53.768;11.474;2022-08-02T10:26:40;3.40;;;1.37;;
3791;SDS011;1911;53.768;11.474;2022-08-02T10:29:16;2.90;;;1.47;;
3791;SDS011;1911;53.768;11.474;2022-08-02T10:31:57;5.00;;;1.37;;
3791;SDS011;1911;53.768;11.474;2022-08-02T10:34:44;3.93;;;1.60;;
3791;SDS011;1911;53.768;11.474;2022-08-02T10:37:19;2.70;;;1.40;;
3791;SDS011;1911;53.768;11.474;2022-08-02T10:39:47;2.27;;;1.30;;
3791;SDS011;1911;53.768;11.474;2022-08-02T10:45:12;6.47;;;1.20;;
3791;SDS011;1911;53.768;11.474;2022-08-02T10:48:03;5.60;;;2.27;;
3791;SDS011;1911;53.768;11.474;2022-08-02T10:55:56;4.43;;;1.30;;
3791;SDS011;1911;53.768;11.474;2022-08-02T10:58:24;3.33;;;1.30;;
3791;SDS011;1911;53.768;11.474;2022-08-02T11:00:52;5.37;;;1.47;;
3791;SDS011;1911;53.768;11.474;2022-08-02T11:06:09;5.17;;;1.07;;
3791;SDS011;1911;53.768;11.474;2022-08-02T11:12:15;5.47;;;1.30;;
3791;SDS011;1911;53.768;11.474;2022-08-02T11:14:38;2.63;;;0.90;;
3791;SDS011;1911;53.768;11.474;2022-08-02T11:22:36;2.50;;;1.07;;
3791;SDS011;1911;53.768;11.474;2022-08-02T11:28:08;3.47;;;1.10;;
3791;SDS011;1911;53.768;11.474;2022-08-02T11:30:37;5.17;;;1.60;;
3791;SDS011;1911;53.768;11.474;2022-08-02T11:33:03;2.60;;;1.30;;
3791;SDS011;1911;53.768;11.474;2022-08-02T11:35:30;4.93;;;1.40;;
3791;SDS011;1911;53.768;11.474;2022-08-02T11:40:45;1.97;;;1.00;;
3791;SDS011;1911;53.768;11.474;2022-08-02T11:43:18;3.73;;;1.20;;
3791;SDS011;1911;53.768;11.474;2022-08-02T11:45:46;3.97;;;1.53;;
3791;SDS011;1911;53.768;11.474;2022-08-02T11:48:29;2.67;;;1.10;;
3791;SDS011;1911;53.768;11.474;2022-08-02T12:07:02;1.70;;;1.00;;
3791;SDS011;1911;53.768;11.474;2022-08-02T12:09:29;2.90;;;1.57;;
3791;SDS011;1911;53.768;11.474;2022-08-02T12:11:59;3.10;;;1.13;;
3791;SDS011;1911;53.768;11.474;2022-08-02T12:14:41;4.20;;;1.33;;
3791;SDS011;1911;53.768;11.474;2022-08-02T12:17:08;3.37;;;1.43;;
3791;SDS011;1911;53.768;11.474;2022-08-02T12:19:55;5.40;;;2.20;;
3791;SDS011;1911;53.768;11.474;2022-08-02T12:22:27;4.20;;;1.67;;
3791;SDS011;1911;53.768;11.474;2022-08-02T12:25:15;2.30;;;1.20;;
3791;SDS011;1911;53.768;11.474;2022-08-02T12:27:43;2.27;;;1.23;;
3791;SDS011;1911;53.768;11.474;2022-08-02T12:30:13;6.63;;;2.47;;
3791;SDS011;1911;53.768;11.474;2022-08-02T12:32:41;4.50;;;1.80;;
3791;SDS011;1911;53.768;11.474;2022-08-02T12:37:41;4.47;;;1.40;;
3791;SDS011;1911;53.768;11.474;2022-08-02T12:40:16;2.43;;;1.10;;
3791;SDS011;1911;53.768;11.474;2022-08-02T12:43:02;5.57;;;1.83;;
3791;SDS011;1911;53.768;11.474;2022-08-02T12:45:30;12.00;;;2.07;;
3791;SDS011;1911;53.768;11.474;2022-08-02T12:48:08;4.27;;;1.80;;
3791;SDS011;1911;53.768;11.474;2022-08-02T12:50:34;5.47;;;1.73;;
3791;SDS011;1911;53.768;11.474;2022-08-02T12:53:04;4.10;;;1.60;;
3791;SDS011;1911;53.768;11.474;2022-08-02T12:55:32;5.43;;;2.10;;
3791;SDS011;1911;53.768;11.474;2022-08-02T12:58:03;3.93;;;1.43;;
3791;SDS011;1911;53.768;11.474;2022-08-02T13:00:36;4.10;;;1.40;;
3791;SDS011;1911;53.768;11.474;2022-08-02T13:03:05;3.47;;;2.10;;
3791;SDS011;1911;53.768;11.474;2022-08-02T13:05:32;5.03;;;1.50;;
3791;SDS011;1911;53.768;11.474;2022-08-02T13:08:00;5.93;;;1.60;;
3791;SDS011;1911;53.768;11.474;2022-08-02T13:10:26;11.20;;;3.87;;
3791;SDS011;1911;53.768;11.474;2022-08-02T13:12:52;9.17;;;2.47;;
3791;SDS011;1911;53.768;11.474;2022-08-02T13:15:19;5.53;;;1.90;;
3791;SDS011;1911;53.768;11.474;2022-08-02T13:17:45;4.13;;;1.87;;
3791;SDS011;1911;53.768;11.474;2022-08-02T13:20:11;2.70;;;1.60;;
3791;SDS011;1911;53.768;11.474;2022-08-02T13:22:41;8.30;;;1.73;;
3791;SDS011;1911;53.768;11.474;2022-08-02T13:25:07;4.30;;;2.10;;
3791;SDS011;1911;53.768;11.474;2022-08-02T13:27:33;8.50;;;1.53;;
3791;SDS011;1911;53.768;11.474;2022-08-02T13:30:00;6.27;;;1.93;;
3791;SDS011;1911;53.768;11.474;2022-08-02T13:32:27;7.20;;;2.13;;
3791;SDS011;1911;53.768;11.474;2022-08-02T13:34:54;3.93;;;2.00;;
3791;SDS011;1911;53.768;11.474;2022-08-02T13:37:20;6.40;;;2.00;;
3791;SDS011;1911;53.768;11.474;2022-08-02T13:39:47;4.20;;;1.97;;
3791;SDS011;1911;53.768;11.474;2022-08-02T13:42:13;2.60;;;1.60;;
3791;SDS011;1911;53.768;11.474;2022-08-02T13:44:39;6.13;;;2.00;;
3791;SDS011;1911;53.768;11.474;2022-08-02T13:47:05;4.00;;;2.03;;
3791;SDS011;1911;53.768;11.474;2022-08-02T13:49:32;3.93;;;1.63;;
3791;SDS011;1911;53.768;11.474;2022-08-02T13:51:57;3.77;;;1.37;;
3791;SDS011;1911;53.768;11.474;2022-08-02T13:54:23;5.40;;;1.70;;
3791;SDS011;1911;53.768;11.474;2022-08-02T13:56:49;6.47;;;1.80;;
3791;SDS011;1911;53.768;11.474;2022-08-02T13:59:15;3.43;;;1.80;;
3791;SDS011;1911;53.768;11.474;2022-08-02T14:01:40;3.20;;;1.77;;
3791;SDS011;1911;53.768;11.474;2022-08-02T14:04:06;3.37;;;1.97;;
3791;SDS011;1911;53.768;11.474;2022-08-02T14:06:32;6.80;;;2.70;;
3791;SDS011;1911;53.768;11.474;2022-08-02T14:08:57;6.77;;;2.17;;
3791;SDS011;1911;53.768;11.474;2022-08-02T14:11:23;3.57;;;2.10;;
3791;SDS011;1911;53.768;11.474;2022-08-02T14:13:49;4.50;;;1.97;;
3791;SDS011;1911;53.768;11.474;2022-08-02T14:16:14;4.40;;;1.80;;
3791;SDS011;1911;53.768;11.474;2022-08-02T14:18:40;6.17;;;2.17;;
3791;SDS011;1911;53.768;11.474;2022-08-02T14:21:06;6.70;;;2.47;;
3791;SDS011;1911;53.768;11.474;2022-08-02T14:23:32;4.70;;;1.80;;
3791;SDS011;1911;53.768;11.474;2022-08-02T14:25:57;4.00;;;2.40;;
3791;SDS011;1911;53.768;11.474;2022-08-02T14:28:23;7.63;;;2.23;;
3791;SDS011;1911;53.768;11.474;2022-08-02T14:30:49;4.77;;;2.30;;
3791;SDS011;1911;53.768;11.474;2022-08-02T14:33:15;4.00;;;2.20;;
3791;SDS011;1911;53.768;11.474;2022-08-02T14:35:42;3.60;;;2.30;;
3791;SDS011;1911;53.768;11.474;2022-08-02T14:38:08;3.73;;;2.13;;
3791;SDS011;1911;53.768;11.474;2022-08-02T14:40:34;4.10;;;1.80;;
3791;SDS011;1911;53.768;11.474;2022-08-02T14:43:00;4.97;;;2.13;;
3791;SDS011;1911;53.768;11.474;2022-08-02T14:45:27;3.63;;;2.03;;
3791;SDS011;1911;53.768;11.474;2022-08-02T14:47:53;3.50;;;2.30;;
3791;SDS011;1911;53.768;11.474;2022-08-02T14:50:19;7.63;;;2.33;;
3791;SDS011;1911;53.768;11.474;2022-08-02T14:52:46;5.83;;;2.40;;
3791;SDS011;1911;53.768;11.474;2022-08-02T14:55:14;3.00;;;2.03;;
3791;SDS011;1911;53.768;11.474;2022-08-02T14:57:40;3.30;;;1.73;;
3791;SDS011;1911;53.768;11.474;2022-08-02T15:00:06;6.40;;;2.87;;
3791;SDS011;1911;53.768;11.474;2022-08-02T15:02:33;5.90;;;2.40;;
3791;SDS011;1911;53.768;11.474;2022-08-02T15:04:59;5.50;;;2.40;;
3791;SDS011;1911;53.768;11.474;2022-08-02T15:07:24;4.10;;;2.30;;
3791;SDS011;1911;53.768;11.474;2022-08-02T15:09:50;3.00;;;2.00;;
3791;SDS011;1911;53.768;11.474;2022-08-02T15:12:16;3.83;;;2.20;;
3791;SDS011;1911;53.768;11.474;2022-08-02T15:14:43;5.20;;;2.23;;
3791;SDS011;1911;53.768;11.474;2022-08-02T15:17:09;6.10;;;2.13;;
3791;SDS011;1911;53.768;11.474;2022-08-02T15:19:35;6.10;;;2.27;;
3791;SDS011;1911;53.768;11.474;2022-08-02T15:22:01;3.37;;;1.83;;
3791;SDS011;1911;53.768;11.474;2022-08-02T15:24:27;4.40;;;2.27;;
3791;SDS011;1911;53.768;11.474;2022-08-02T15:26:52;3.80;;;2.17;;
3791;SDS011;1911;53.768;11.474;2022-08-02T15:29:19;3.30;;;1.90;;
3791;SDS011;1911;53.768;11.474;2022-08-02T15:31:45;4.10;;;2.10;;
3791;SDS011;1911;53.768;11.474;2022-08-02T15:34:12;2.37;;;1.77;;
3791;SDS011;1911;53.768;11.474;2022-08-02T15:36:38;3.63;;;1.93;;
3791;SDS011;1911;53.768;11.474;2022-08-02T15:39:04;3.20;;;1.97;;
3791;SDS011;1911;53.768;11.474;2022-08-02T15:41:30;3.93;;;2.00;;
3791;SDS011;1911;53.768;11.474;2022-08-02T15:43:56;2.70;;;1.70;;
3791;SDS011;1911;53.768;11.474;2022-08-02T15:46:22;4.80;;;2.10;;
3791;SDS011;1911;53.768;11.474;2022-08-02T15:48:48;4.50;;;2.30;;
3791;SDS011;1911;53.768;11.474;2022-08-02T15:51:14;4.13;;;2.07;;
3791;SDS011;1911;53.768;11.474;2022-08-02T15:53:39;3.63;;;1.80;;
3791;SDS011;1911;53.768;11.474;2022-08-02T15:56:06;2.70;;;1.53;;
3791;SDS011;1911;53.768;11.474;2022-08-02T15:58:31;2.57;;;1.40;;
3791;SDS011;1911;53.768;11.474;2022-08-02T16:00:57;2.97;;;1.83;;
3791;SDS011;1911;53.768;11.474;2022-08-02T16:03:23;4.23;;;1.70;;
3791;SDS011;1911;53.768;11.474;2022-08-02T16:05:49;5.83;;;2.20;;
3791;SDS011;1911;53.768;11.474;2022-08-02T16:08:15;5.50;;;2.03;;
3791;SDS011;1911;53.768;11.474;2022-08-02T16:10:41;2.40;;;1.70;;
3791;SDS011;1911;53.768;11.474;2022-08-02T16:13:07;6.70;;;2.30;;
3791;SDS011;1911;53.768;11.474;2022-08-02T16:15:52;4.40;;;2.60;;
3791;SDS011;1911;53.768;11.474;2022-08-02T16:18:18;3.10;;;1.80;;
3791;SDS011;1911;53.768;11.474;2022-08-02T16:20:44;3.47;;;1.70;;
3791;SDS011;1911;53.768;11.474;2022-08-02T16:23:09;5.13;;;2.07;;
3791;SDS011;1911;53.768;11.474;2022-08-02T16:25:37;4.27;;;2.03;;
3791;SDS011;1911;53.768;11.474;2022-08-02T16:28:03;5.33;;;2.00;;